Time;durP1;ratioP1;P1;durP2;ratioP2;P2;SDS_P1;SDS_P2;PMS_P1;PMS_P2;Temp;Humidity;BMP_temperature;BMP_pressure;BME280_temperature;BME280_humidity;BME280_pressure;Samples;Min_cycle;Max_cycle;Signal;HPM_P1;HPM_P2
2022/09/10 00:00:10;;;;;;;5.75;1.58;;;;;;;;;;4771743;30;20445;-75
2022/09/10 00:02:38;;;;;;;6.35;1.70;;;;;;;;;;4772731;30;20047;-75
2022/09/10 00:05:04;;;;;;;5.45;1.45;;;;;;;;;;4772614;30;20047;-74
2022/09/10 00:07:31;;;;;;;7.15;1.55;;;;;;;;;;4772472;30;20044;-75
2022/09/10 00:09:57;;;;;;;3.60;1.35;;;;;;;;;;4772678;30;20044;-74
2022/09/10 00:12:23;;;;;;;4.70;1.65;;;;;;;;;;4772835;30;20055;-75
2022/09/10 00:14:51;;;;;;;5.05;1.40;;;;;;;;;;4772423;30;20051;-75
2022/09/10 00:17:17;;;;;;;4.55;1.40;;;;;;;;;;4772611;30;20050;-75
2022/09/10 00:19:43;;;;;;;7.28;1.77;;;;;;;;;;4772339;30;20047;-74
2022/09/10 00:22:10;;;;;;;5.63;1.67;;;;;;;;;;4772214;30;20118;-74
2022/09/10 00:24:37;;;;;;;4.00;1.60;;;;;;;;;;4772395;30;20078;-74
2022/09/10 00:27:03;;;;;;;6.93;1.33;;;;;;;;;;4772529;30;20054;-75
2022/09/10 00:29:30;;;;;;;5.47;1.30;;;;;;;;;;4771267;30;20366;-74
2022/09/10 00:31:56;;;;;;;5.45;1.58;;;;;;;;;;4772564;30;20521;-74
2022/09/10 00:34:22;;;;;;;4.57;1.40;;;;;;;;;;4772140;30;20051;-75
2022/09/10 00:36:48;;;;;;;4.60;1.60;;;;;;;;;;4772306;30;20046;-75
2022/09/10 00:39:16;;;;;;;3.97;1.33;;;;;;;;;;4772043;30;20048;-75
2022/09/10 00:41:43;;;;;;;8.32;1.70;;;;;;;;;;4771469;30;20400;-75
2022/09/10 00:44:30;;;;;;;7.13;1.70;;;;;;;;;;4772073;30;20154;-75
2022/09/10 00:46:58;;;;;;;3.25;1.48;;;;;;;;;;4771570;30;20054;-75
2022/09/10 00:49:31;;;;;;;4.30;1.33;;;;;;;;;;4771712;30;20047;-75
2022/09/10 00:51:57;;;;;;;4.70;1.50;;;;;;;;;;4771542;30;20063;-75
2022/09/10 00:54:25;;;;;;;4.65;1.08;;;;;;;;;;4771539;30;20048;-75
2022/09/10 00:56:53;;;;;;;4.75;1.48;;;;;;;;;;4771873;30;20051;-74
2022/09/10 00:59:20;;;;;;;4.13;1.20;;;;;;;;;;4771507;30;20052;-74
2022/09/10 01:01:48;;;;;;;4.20;1.30;;;;;;;;;;4771655;30;20060;-75
2022/09/10 01:04:14;;;;;;;5.30;1.23;;;;;;;;;;4771722;30;20101;-75
2022/09/10 01:06:41;;;;;;;4.95;1.75;;;;;;;;;;4771433;30;20048;-74
2022/09/10 01:09:08;;;;;;;3.15;1.33;;;;;;;;;;4771649;30;20068;-74
2022/09/10 01:11:47;;;;;;;3.70;1.42;;;;;;;;;;4771684;30;20112;-74
2022/09/10 01:14:13;;;;;;;6.22;1.50;;;;;;;;;;4771590;30;20040;-75
2022/09/10 01:16:44;;;;;;;7.85;1.40;;;;;;;;;;4771536;30;20058;-74
2022/09/10 01:19:33;;;;;;;4.30;1.65;;;;;;;;;;4771725;30;20043;-74
2022/09/10 01:22:15;;;;;;;6.60;1.40;;;;;;;;;;4771769;30;20123;-74
2022/09/10 01:24:50;;;;;;;2.08;1.00;;;;;;;;;;4771674;30;20051;-74
2022/09/10 01:27:26;;;;;;;5.50;1.27;;;;;;;;;;4771634;30;20048;-74
2022/09/10 01:30:16;;;;;;;4.22;1.55;;;;;;;;;;4771089;30;20048;-74
2022/09/10 01:32:54;;;;;;;6.28;1.90;;;;;;;;;;4771160;30;20531;-74
2022/09/10 01:35:29;;;;;;;5.97;1.50;;;;;;;;;;4774990;30;20052;-74
2022/09/10 01:37:58;;;;;;;8.32;1.55;;;;;;;;;;4774876;30;20581;-74
2022/09/10 01:40:28;;;;;;;7.78;1.60;;;;;;;;;;4773717;30;20419;-74
2022/09/10 01:43:14;;;;;;;6.30;1.52;;;;;;;;;;4775616;30;20051;-74
2022/09/10 01:45:44;;;;;;;5.05;1.38;;;;;;;;;;4775459;30;20074;-74
2022/09/10 01:48:10;;;;;;;4.55;1.73;;;;;;;;;;4774903;30;20105;-75
2022/09/10 01:50:42;;;;;;;3.95;1.40;;;;;;;;;;4775095;30;20056;-74
2022/09/10 01:53:14;;;;;;;3.53;1.25;;;;;;;;;;4775018;30;20052;-74
2022/09/10 01:55:56;;;;;;;4.20;1.20;;;;;;;;;;4774843;30;20048;-74
2022/09/10 01:58:22;;;;;;;5.47;1.35;;;;;;;;;;4774865;30;20131;-74
2022/09/10 02:01:14;;;;;;;6.18;1.35;;;;;;;;;;4775012;30;20055;-74
2022/09/10 02:03:42;;;;;;;2.72;1.13;;;;;;;;;;4774602;30;20059;-74
2022/09/10 02:06:11;;;;;;;6.78;1.50;;;;;;;;;;4775200;30;20043;-75
2022/09/10 02:08:38;;;;;;;8.18;1.42;;;;;;;;;;4774587;30;20066;-74
2022/09/10 02:11:05;;;;;;;9.13;1.55;;;;;;;;;;4774784;30;20083;-74
2022/09/10 02:13:33;;;;;;;4.60;1.75;;;;;;;;;;4774775;30;20106;-74
2022/09/10 02:15:59;;;;;;;5.15;1.15;;;;;;;;;;4774749;30;20496;-74
2022/09/10 02:18:26;;;;;;;3.38;1.00;;;;;;;;;;4774747;30;20039;-74
2022/09/10 02:20:54;;;;;;;2.67;1.17;;;;;;;;;;4774417;30;20072;-74
2022/09/10 02:23:23;;;;;;;4.07;1.17;;;;;;;;;;4774326;30;20126;-74
2022/09/10 02:25:50;;;;;;;4.03;1.13;;;;;;;;;;4774281;30;20051;-74
2022/09/10 02:28:16;;;;;;;3.08;1.00;;;;;;;;;;4773939;30;20427;-74
2022/09/10 02:30:43;;;;;;;9.85;1.85;;;;;;;;;;4773867;30;20086;-74
2022/09/10 02:33:10;;;;;;;8.82;1.52;;;;;;;;;;4773896;30;20050;-75
2022/09/10 02:35:37;;;;;;;3.25;1.00;;;;;;;;;;4774086;30;20068;-74
2022/09/10 02:38:04;;;;;;;5.15;1.30;;;;;;;;;;4773943;30;20047;-74
2022/09/10 02:40:30;;;;;;;5.75;1.30;;;;;;;;;;4774033;30;20055;-74
2022/09/10 02:42:57;;;;;;;5.68;1.20;;;;;;;;;;4774305;30;20552;-74
2022/09/10 02:45:23;;;;;;;6.22;1.35;;;;;;;;;;4773540;30;20138;-75
2022/09/10 02:47:49;;;;;;;4.65;1.48;;;;;;;;;;4774175;30;20492;-74
2022/09/10 02:50:16;;;;;;;4.15;1.50;;;;;;;;;;4774038;30;20040;-75
2022/09/10 02:52:44;;;;;;;4.93;1.30;;;;;;;;;;4774104;30;20052;-74
2022/09/10 02:55:11;;;;;;;4.53;1.30;;;;;;;;;;4774306;30;20040;-74
2022/09/10 02:57:38;;;;;;;4.10;1.23;;;;;;;;;;4774164;30;20048;-74
2022/09/10 03:00:05;;;;;;;3.72;1.23;;;;;;;;;;4773853;30;20044;-74
2022/09/10 03:02:31;;;;;;;9.30;1.27;;;;;;;;;;4774254;30;20052;-74
2022/09/10 03:04:58;;;;;;;5.93;1.45;;;;;;;;;;4773954;30;20120;-74
2022/09/10 03:07:24;;;;;;;7.00;1.60;;;;;;;;;;4773454;30;20058;-74
2022/09/10 03:09:50;;;;;;;6.35;1.73;;;;;;;;;;4773845;30;20043;-74
2022/09/10 03:12:16;;;;;;;4.65;1.50;;;;;;;;;;4773588;30;20063;-75
2022/09/10 03:14:43;;;;;;;4.53;1.50;;;;;;;;;;4773698;30;20130;-74
2022/09/10 03:17:09;;;;;;;4.15;1.75;;;;;;;;;;4773651;30;20091;-74
2022/09/10 03:19:35;;;;;;;5.05;1.80;;;;;;;;;;4773442;30;20105;-74
2022/09/10 03:22:02;;;;;;;7.38;2.05;;;;;;;;;;4773507;30;20493;-75
2022/09/10 03:24:28;;;;;;;6.32;2.17;;;;;;;;;;4773641;30;20039;-74
2022/09/10 03:26:54;;;;;;;4.70;2.20;;;;;;;;;;4773487;30;20094;-74
2022/09/10 03:29:21;;;;;;;7.43;2.08;;;;;;;;;;4773855;30;20061;-75
2022/09/10 03:31:50;;;;;;;5.60;1.50;;;;;;;;;;4773736;30;20063;-74
2022/09/10 03:34:17;;;;;;;6.20;1.73;;;;;;;;;;4773592;30;20130;-75
2022/09/10 03:36:46;;;;;;;5.47;1.80;;;;;;;;;;4772865;30;20052;-74
2022/09/10 03:39:13;;;;;;;6.72;1.77;;;;;;;;;;4773284;30;20039;-75
2022/09/10 03:41:39;;;;;;;6.95;1.42;;;;;;;;;;4773020;30;20051;-74
2022/09/10 03:44:05;;;;;;;6.55;1.80;;;;;;;;;;4772718;30;20573;-74
2022/09/10 03:46:31;;;;;;;4.38;1.52;;;;;;;;;;4773279;30;20127;-74
2022/09/10 03:49:01;;;;;;;4.82;1.58;;;;;;;;;;4772956;30;20044;-74
2022/09/10 03:51:28;;;;;;;4.25;1.42;;;;;;;;;;4772718;30;20060;-74
2022/09/10 03:53:54;;;;;;;4.57;1.15;;;;;;;;;;4772755;30;20040;-74
2022/09/10 03:56:21;;;;;;;6.22;1.20;;;;;;;;;;4772159;30;20040;-74
2022/09/10 03:58:51;;;;;;;10.45;1.65;;;;;;;;;;4772756;30;20040;-74
2022/09/10 04:01:17;;;;;;;3.53;1.13;;;;;;;;;;4773297;30;20112;-74
2022/09/10 04:03:43;;;;;;;5.00;1.35;;;;;;;;;;4772983;30;20592;-74
2022/09/10 04:06:14;;;;;;;5.72;1.15;;;;;;;;;;4772370;30;20177;-74
2022/09/10 04:08:42;;;;;;;;;;;;;;;;;;4772610;30;20500;-74
2022/09/10 04:11:08;;;;;;;3.38;1.30;;;;;;;;;;4773275;30;19929;-74
2022/09/10 04:13:35;;;;;;;2.88;1.05;;;;;;;;;;4771363;30;20051;-75
2022/09/10 04:16:01;;;;;;;5.35;1.48;;;;;;;;;;4771680;30;20047;-74
2022/09/10 04:18:27;;;;;;;7.18;1.50;;;;;;;;;;4771854;30;20111;-75
2022/09/10 04:20:55;;;;;;;6.05;1.20;;;;;;;;;;4771580;30;20534;-75
2022/09/10 04:23:21;;;;;;;3.90;1.10;;;;;;;;;;4770883;30;20079;-75
2022/09/10 04:25:48;;;;;;;7.65;1.42;;;;;;;;;;4771500;30;20052;-75
2022/09/10 04:28:15;;;;;;;6.50;1.33;;;;;;;;;;4771615;30;20044;-75
2022/09/10 04:30:42;;;;;;;4.00;1.13;;;;;;;;;;4771381;30;20079;-75
2022/09/10 04:33:08;;;;;;;5.35;1.00;;;;;;;;;;4770355;30;20491;-75
2022/09/10 04:35:34;;;;;;;7.07;1.17;;;;;;;;;;4771182;30;20083;-75
2022/09/10 04:38:00;;;;;;;3.58;1.10;;;;;;;;;;4771458;30;20048;-75
2022/09/10 04:40:26;;;;;;;4.15;1.40;;;;;;;;;;4771666;30;20055;-75
2022/09/10 04:42:53;;;;;;;6.22;1.23;;;;;;;;;;4771976;30;20079;-75
2022/09/10 04:45:19;;;;;;;6.70;1.25;;;;;;;;;;4771259;30;20065;-75
2022/09/10 04:47:45;;;;;;;7.88;1.27;;;;;;;;;;4771597;30;20043;-76
2022/09/10 04:50:14;;;;;;;5.20;1.05;;;;;;;;;;4771032;30;20496;-75
2022/09/10 04:52:42;;;;;;;4.72;1.10;;;;;;;;;;4771046;30;20048;-75
2022/09/10 04:55:08;;;;;;;8.13;1.58;;;;;;;;;;4770804;30;20492;-72
2022/09/10 04:57:35;;;;;;;6.22;1.38;;;;;;;;;;4772055;30;20044;-74
2022/09/10 05:00:01;;;;;;;5.47;1.10;;;;;;;;;;4771724;30;20058;-74
2022/09/10 05:02:28;;;;;;;5.70;1.42;;;;;;;;;;4771187;30;20044;-74
2022/09/10 05:04:54;;;;;;;6.53;1.20;;;;;;;;;;4771355;30;20051;-74
2022/09/10 05:07:20;;;;;;;2.78;1.10;;;;;;;;;;4771465;30;20138;-74
2022/09/10 05:09:46;;;;;;;5.50;1.30;;;;;;;;;;4771656;30;20130;-74
2022/09/10 05:12:12;;;;;;;6.57;1.40;;;;;;;;;;4771557;30;20055;-74
2022/09/10 05:14:38;;;;;;;3.00;1.00;;;;;;;;;;4771602;30;20055;-74
2022/09/10 05:17:05;;;;;;;7.65;1.20;;;;;;;;;;4771335;30;20043;-74
2022/09/10 05:19:31;;;;;;;7.85;1.25;;;;;;;;;;4771994;30;20047;-74
2022/09/10 05:21:57;;;;;;;5.40;1.40;;;;;;;;;;4771196;30;20516;-74
2022/09/10 05:24:23;;;;;;;6.78;1.42;;;;;;;;;;4771116;30;20473;-74
2022/09/10 05:26:49;;;;;;;6.63;1.48;;;;;;;;;;4771718;30;20384;-74
2022/09/10 05:29:16;;;;;;;4.50;1.10;;;;;;;;;;4771193;30;20047;-74
2022/09/10 05:31:43;;;;;;;4.30;1.05;;;;;;;;;;4771675;30;20059;-74
2022/09/10 05:34:09;;;;;;;6.57;1.08;;;;;;;;;;4771395;30;20120;-74
2022/09/10 05:36:35;;;;;;;5.15;1.05;;;;;;;;;;4770991;30;20070;-74
2022/09/10 05:39:05;;;;;;;6.80;1.20;;;;;;;;;;4771425;30;20079;-74
2022/09/10 05:41:31;;;;;;;7.55;1.75;;;;;;;;;;4771298;30;20079;-74
2022/09/10 05:43:58;;;;;;;9.73;1.58;;;;;;;;;;4771006;30;20074;-74
2022/09/10 05:46:24;;;;;;;6.35;1.05;;;;;;;;;;4771646;30;20051;-74
2022/09/10 05:48:52;;;;;;;5.15;0.90;;;;;;;;;;4771645;30;20052;-74
2022/09/10 05:51:19;;;;;;;4.32;1.15;;;;;;;;;;4771003;30;20127;-74
2022/09/10 05:53:45;;;;;;;5.47;1.20;;;;;;;;;;4771600;30;20051;-74
2022/09/10 05:56:11;;;;;;;5.22;1.05;;;;;;;;;;4771595;30;20073;-74
2022/09/10 05:58:37;;;;;;;5.47;1.20;;;;;;;;;;4771581;30;20492;-74
2022/09/10 06:01:03;;;;;;;5.47;1.25;;;;;;;;;;4771799;30;20138;-74
2022/09/10 06:03:29;;;;;;;4.35;1.15;;;;;;;;;;4771467;30;20496;-74
2022/09/10 06:05:56;;;;;;;6.13;1.23;;;;;;;;;;4771463;30;20050;-74
2022/09/10 06:08:22;;;;;;;3.80;1.10;;;;;;;;;;4771074;30;20051;-74
2022/09/10 06:10:59;;;;;;;9.60;1.48;;;;;;;;;;4771075;30;20488;-74
2022/09/10 06:13:26;;;;;;;5.18;1.33;;;;;;;;;;4771249;30;20509;-74
2022/09/10 06:15:52;;;;;;;4.95;1.10;;;;;;;;;;4771074;30;20504;-74
2022/09/10 06:18:19;;;;;;;4.82;1.15;;;;;;;;;;4771868;30;20134;-74
2022/09/10 06:20:46;;;;;;;4.72;1.13;;;;;;;;;;4774725;30;20151;-74
2022/09/10 06:23:16;;;;;;;5.88;1.48;;;;;;;;;;4773380;30;20387;-74
2022/09/10 06:25:43;;;;;;;8.00;1.10;;;;;;;;;;4774760;30;20039;-74
2022/09/10 06:28:11;;;;;;;3.15;0.82;;;;;;;;;;4774199;30;20404;-74
2022/09/10 06:30:38;;;;;;;7.78;1.20;;;;;;;;;;4774119;30;20051;-74
2022/09/10 06:33:04;;;;;;;6.85;1.10;;;;;;;;;;4774021;30;20122;-74
2022/09/10 06:35:32;;;;;;;5.95;1.50;;;;;;;;;;4774168;30;20072;-75
2022/09/10 06:37:58;;;;;;;4.05;1.00;;;;;;;;;;4773949;30;20496;-74
2022/09/10 06:40:26;;;;;;;4.32;1.10;;;;;;;;;;4774391;30;20126;-74
2022/09/10 06:42:53;;;;;;;4.43;1.77;;;;;;;;;;4773725;30;20078;-73
2022/09/10 06:45:19;;;;;;;6.32;1.20;;;;;;;;;;4773089;30;20121;-74
2022/09/10 06:47:45;;;;;;;4.72;0.82;;;;;;;;;;4773348;30;20078;-74
2022/09/10 06:50:12;;;;;;;4.57;1.02;;;;;;;;;;4772800;30;20039;-74
2022/09/10 06:52:38;;;;;;;9.43;1.63;;;;;;;;;;4773208;30;20048;-74
2022/09/10 06:55:04;;;;;;;3.75;1.10;;;;;;;;;;4772897;30;20400;-74
2022/09/10 06:57:30;;;;;;;5.25;1.58;;;;;;;;;;4773113;30;20508;-74
2022/09/10 06:59:57;;;;;;;7.80;1.10;;;;;;;;;;4772869;30;20055;-74
2022/09/10 07:02:24;;;;;;;6.57;1.08;;;;;;;;;;4773167;30;20048;-74
2022/09/10 07:04:50;;;;;;;6.20;1.17;;;;;;;;;;4772769;30;20048;-73
2022/09/10 07:07:16;;;;;;;4.65;0.65;;;;;;;;;;4771396;30;20047;-74
2022/09/10 07:09:43;;;;;;;4.55;1.05;;;;;;;;;;4772136;30;20134;-74
2022/09/10 07:12:10;;;;;;;2.67;0.90;;;;;;;;;;4772590;30;20052;-73
2022/09/10 07:14:36;;;;;;;2.88;0.90;;;;;;;;;;4772623;30;20112;-74
2022/09/10 07:17:02;;;;;;;4.28;1.10;;;;;;;;;;4772504;30;20504;-74
2022/09/10 07:19:29;;;;;;;4.38;1.08;;;;;;;;;;4772743;30;20054;-74
2022/09/10 07:21:56;;;;;;;4.15;0.90;;;;;;;;;;4772510;30;20048;-73
2022/09/10 07:24:22;;;;;;;3.95;1.00;;;;;;;;;;4772784;30;20070;-74
2022/09/10 07:26:48;;;;;;;7.22;1.25;;;;;;;;;;4773675;30;20570;-76
2022/09/10 07:29:14;;;;;;;5.88;1.02;;;;;;;;;;4773227;30;20487;-77
2022/09/10 07:31:40;;;;;;;5.90;0.88;;;;;;;;;;4770444;30;20063;-76
2022/09/10 07:34:07;;;;;;;3.35;0.80;;;;;;;;;;4770773;30;20554;-74
2022/09/10 07:36:33;;;;;;;7.03;1.30;;;;;;;;;;4772460;30;20039;-74
2022/09/10 07:39:00;;;;;;;8.15;0.90;;;;;;;;;;4772345;30;20473;-74
2022/09/10 07:41:30;;;;;;;6.13;1.00;;;;;;;;;;4771454;30;20055;-74
2022/09/10 07:43:57;;;;;;;5.68;0.88;;;;;;;;;;4772200;30;20047;-75
2022/09/10 07:46:24;;;;;;;3.92;0.98;;;;;;;;;;4772993;30;20039;-75
2022/09/10 07:48:55;;;;;;;7.63;1.05;;;;;;;;;;4771967;30;20542;-75
2022/09/10 07:51:22;;;;;;;6.00;1.25;;;;;;;;;;4772385;30;20048;-75
2022/09/10 07:53:52;;;;;;;5.72;1.10;;;;;;;;;;4772039;30;20075;-76
2022/09/10 07:56:19;;;;;;;7.05;1.13;;;;;;;;;;4771768;30;20052;-75
2022/09/10 07:58:46;;;;;;;5.40;1.13;;;;;;;;;;4772551;30;20171;-75
2022/09/10 08:01:13;;;;;;;7.38;1.00;;;;;;;;;;4771715;30;20504;-75
2022/09/10 08:03:41;;;;;;;2.92;0.93;;;;;;;;;;4771444;30;20060;-75
2022/09/10 08:06:08;;;;;;;4.63;0.98;;;;;;;;;;4771993;30;20058;-75
2022/09/10 08:08:36;;;;;;;7.03;1.35;;;;;;;;;;4772031;30;20047;-75
2022/09/10 08:11:06;;;;;;;7.50;1.02;;;;;;;;;;4770584;30;20052;-75
2022/09/10 08:13:34;;;;;;;4.97;1.02;;;;;;;;;;4772002;30;20047;-75
2022/09/10 08:16:03;;;;;;;4.53;1.10;;;;;;;;;;4771442;30;20058;-75
2022/09/10 08:18:30;;;;;;;2.65;0.88;;;;;;;;;;4771718;30;20069;-76
2022/09/10 08:20:56;;;;;;;5.63;0.88;;;;;;;;;;4771010;30;20142;-76
2022/09/10 08:23:22;;;;;;;5.13;1.20;;;;;;;;;;4770070;30;20043;-76
2022/09/10 08:25:50;;;;;;;3.03;0.80;;;;;;;;;;4770722;30;20056;-76
2022/09/10 08:28:21;;;;;;;3.72;1.00;;;;;;;;;;4770997;30;20059;-75
2022/09/10 08:31:06;;;;;;;5.75;0.90;;;;;;;;;;4771877;30;20088;-75
2022/09/10 08:33:34;;;;;;;4.70;1.00;;;;;;;;;;4772376;30;20075;-75
2022/09/10 08:36:01;;;;;;;3.85;0.82;;;;;;;;;;4772709;30;20054;-76
2022/09/10 08:38:38;;;;;;;3.97;0.95;;;;;;;;;;4771895;30;20519;-76
2022/09/10 08:41:30;;;;;;;5.05;0.73;;;;;;;;;;4772096;30;20051;-75
2022/09/10 08:43:59;;;;;;;6.07;1.45;;;;;;;;;;4770792;30;20050;-75
2022/09/10 08:46:28;;;;;;;4.10;0.90;;;;;;;;;;4771915;30;20044;-74
2022/09/10 08:49:14;;;;;;;4.75;0.98;;;;;;;;;;4771979;30;20055;-75
2022/09/10 08:51:46;;;;;;;4.18;1.05;;;;;;;;;;4771958;30;20155;-76
2022/09/10 08:54:24;;;;;;;4.45;1.05;;;;;;;;;;4770850;30;20105;-76
2022/09/10 08:56:52;;;;;;;5.82;0.80;;;;;;;;;;4771630;30;20058;-75
2022/09/10 08:59:21;;;;;;;2.92;0.80;;;;;;;;;;4771882;30;20039;-76
2022/09/10 09:01:50;;;;;;;3.20;0.70;;;;;;;;;;4771975;30;20509;-75
2022/09/10 09:04:21;;;;;;;3.38;0.82;;;;;;;;;;4771509;30;20188;-75
2022/09/10 09:06:50;;;;;;;3.13;0.63;;;;;;;;;;4770876;30;20048;-75
2022/09/10 09:09:17;;;;;;;3.47;1.00;;;;;;;;;;4771920;30;20051;-73
2022/09/10 09:11:45;;;;;;;3.85;1.50;;;;;;;;;;4771701;30;20048;-76
2022/09/10 09:14:16;;;;;;;3.58;1.05;;;;;;;;;;4771350;30;20055;-76
2022/09/10 09:16:42;;;;;;;;;;;;;;;;;;4772037;30;20035;-75
2022/09/10 09:19:16;;;;;;;3.10;0.98;;;;;;;;;;4771585;30;20012;-75
2022/09/10 09:21:55;;;;;;;5.68;1.00;;;;;;;;;;4771138;30;20047;-76
2022/09/10 09:24:44;;;;;;;3.20;0.90;;;;;;;;;;4771381;30;20051;-75
2022/09/10 09:27:18;;;;;;;5.93;1.20;;;;;;;;;;4771616;30;20048;-75
2022/09/10 09:29:54;;;;;;;4.15;0.80;;;;;;;;;;4784671;30;20047;-74
2022/09/10 09:32:21;;;;;;;3.40;1.27;;;;;;;;;;4770786;30;20600;-76
2022/09/10 09:34:54;;;;;;;4.15;1.23;;;;;;;;;;4771550;30;20109;-76
2022/09/10 09:37:22;;;;;;;2.30;0.70;;;;;;;;;;4770191;30;20516;-75
2022/09/10 09:40:13;;;;;;;2.88;0.90;;;;;;;;;;4766194;30;20051;-75
2022/09/10 09:42:44;;;;;;;4.15;0.95;;;;;;;;;;4768482;30;20063;-75
2022/09/10 09:45:29;;;;;;;3.13;0.90;;;;;;;;;;4770839;30;20111;-75
2022/09/10 09:47:55;;;;;;;0.93;0.57;;;;;;;;;;4771435;30;20040;-75
2022/09/10 09:50:21;;;;;;;3.47;0.80;;;;;;;;;;4771096;30;20496;-75
2022/09/10 09:52:54;;;;;;;5.07;1.02;;;;;;;;;;4771422;30;20382;-74
2022/09/10 09:55:26;;;;;;;3.10;0.90;;;;;;;;;;4774414;30;20127;-75
2022/09/10 09:58:12;;;;;;;4.80;0.98;;;;;;;;;;4774889;30;20516;-75
2022/09/10 10:00:38;;;;;;;6.65;1.10;;;;;;;;;;4774434;30;20572;-74
2022/09/10 10:03:14;;;;;;;1.45;0.40;;;;;;;;;;4775297;30;20095;-74
2022/09/10 10:05:41;;;;;;;3.42;0.90;;;;;;;;;;4774479;30;20512;-74
2022/09/10 10:08:24;;;;;;;2.15;0.75;;;;;;;;;;4774361;30;20050;-74
2022/09/10 10:10:52;;;;;;;1.67;0.60;;;;;;;;;;4773752;30;20051;-74
2022/09/10 10:13:21;;;;;;;5.72;0.85;;;;;;;;;;4773477;30;20051;-74
2022/09/10 10:15:47;;;;;;;4.13;1.85;;;;;;;;;;4771644;30;20127;-73
2022/09/10 10:18:23;;;;;;;6.18;4.38;;;;;;;;;;4773592;30;20076;-74
2022/09/10 10:21:03;;;;;;;3.55;2.67;;;;;;;;;;4771824;30;20058;-75
2022/09/10 10:23:37;;;;;;;37.45;33.90;;;;;;;;;;4771510;30;20131;-75
2022/09/10 10:26:17;;;;;;;31.02;28.10;;;;;;;;;;4773569;30;20043;-74
2022/09/10 10:28:47;;;;;;;16.42;14.73;;;;;;;;;;4773881;30;20048;-74
2022/09/10 10:31:14;;;;;;;10.85;9.88;;;;;;;;;;4774400;30;20057;-73
2022/09/10 10:34:06;;;;;;;25.05;22.80;;;;;;;;;;4774206;30;20078;-74
2022/09/10 10:36:42;;;;;;;27.50;25.02;;;;;;;;;;4772491;30;20044;-76
2022/09/10 10:39:12;;;;;;;9.45;8.50;;;;;;;;;;4774114;30;20052;-76
2022/09/10 10:42:03;;;;;;;7.90;6.13;;;;;;;;;;4774159;30;20056;-75
2022/09/10 10:44:36;;;;;;;8.10;5.22;;;;;;;;;;4766988;30;20067;-75
2022/09/10 10:47:08;;;;;;;3.42;2.20;;;;;;;;;;4773100;30;20044;-76
2022/09/10 10:49:46;;;;;;;2.63;0.95;;;;;;;;;;4773703;30;20528;-76
2022/09/10 10:52:18;;;;;;;3.35;2.50;;;;;;;;;;4773599;30;20131;-76
2022/09/10 10:54:47;;;;;;;4.53;2.85;;;;;;;;;;4773485;30;20054;-76
2022/09/10 10:57:32;;;;;;;3.28;1.52;;;;;;;;;;4773160;30;20051;-75
2022/09/10 11:00:00;;;;;;;5.78;3.45;;;;;;;;;;4774129;30;20130;-74
2022/09/10 11:02:29;;;;;;;2.03;0.63;;;;;;;;;;4773368;30;20058;-74
2022/09/10 11:04:57;;;;;;;3.17;0.68;;;;;;;;;;4773766;30;20126;-75
2022/09/10 11:07:23;;;;;;;2.05;0.70;;;;;;;;;;4772489;30;20044;-75
2022/09/10 11:09:56;;;;;;;3.00;1.05;;;;;;;;;;4773705;30;20047;-75
2022/09/10 11:12:34;;;;;;;2.92;0.70;;;;;;;;;;4773789;30;20051;-75
2022/09/10 11:15:06;;;;;;;4.43;0.95;;;;;;;;;;4773775;30;20043;-75
2022/09/10 11:17:39;;;;;;;1.48;0.50;;;;;;;;;;4773757;30;20040;-75
2022/09/10 11:20:13;;;;;;;1.42;0.55;;;;;;;;;;4773726;30;20127;-75
2022/09/10 11:22:44;;;;;;;4.28;0.90;;;;;;;;;;4787063;30;20458;-75
2022/09/10 11:25:22;;;;;;;9.80;0.90;;;;;;;;;;4773437;30;20370;-75
2022/09/10 11:27:51;;;;;;;2.03;0.70;;;;;;;;;;4773256;30;20046;-75
2022/09/10 11:30:18;;;;;;;3.28;0.73;;;;;;;;;;4773581;30;20051;-75
2022/09/10 11:32:57;;;;;;;4.90;1.00;;;;;;;;;;4773479;30;20135;-75
2022/09/10 11:35:35;;;;;;;6.15;0.82;;;;;;;;;;4773624;30;20058;-75
2022/09/10 11:38:19;;;;;;;4.00;0.70;;;;;;;;;;4772997;30;20496;-75
2022/09/10 11:40:45;;;;;;;1.13;0.60;;;;;;;;;;4773382;30;20070;-75
2022/09/10 11:43:13;;;;;;;2.00;0.70;;;;;;;;;;4773712;30;20075;-75
2022/09/10 11:45:51;;;;;;;1.80;0.75;;;;;;;;;;4773160;30;20090;-75
2022/09/10 11:48:32;;;;;;;3.33;0.75;;;;;;;;;;4772447;30;20078;-75
2022/09/10 11:51:06;;;;;;;2.20;0.65;;;;;;;;;;4772847;30;20048;-75
2022/09/10 11:53:33;;;;;;;3.22;0.73;;;;;;;;;;4772819;30;20101;-76
2022/09/10 11:56:17;;;;;;;2.55;0.90;;;;;;;;;;4772816;30;20377;-76
2022/09/10 11:59:07;;;;;;;2.78;0.60;;;;;;;;;;4772805;30;20047;-76
2022/09/10 12:01:48;;;;;;;4.70;0.68;;;;;;;;;;4773106;30;20052;-76
2022/09/10 12:04:14;;;;;;;1.90;0.73;;;;;;;;;;4772457;30;20052;-76
2022/09/10 12:06:53;;;;;;;3.17;0.65;;;;;;;;;;4772618;30;20047;-76
2022/09/10 12:09:36;;;;;;;3.25;0.50;;;;;;;;;;4772610;30;20039;-76
2022/09/10 12:12:05;;;;;;;1.15;0.50;;;;;;;;;;4772257;30;20044;-76
2022/09/10 12:14:32;;;;;;;3.08;0.68;;;;;;;;;;4772204;30;20497;-76
2022/09/10 12:17:04;;;;;;;1.30;0.57;;;;;;;;;;4771997;30;20046;-76
2022/09/10 12:19:33;;;;;;;1.60;0.70;;;;;;;;;;4772888;30;20074;-76
2022/09/10 12:22:28;;;;;;;2.13;0.70;;;;;;;;;;4772251;30;20062;-76
2022/09/10 12:24:59;;;;;;;1.23;0.52;;;;;;;;;;4786906;29;20044;-76
2022/09/10 12:27:43;;;;;;;1.63;0.57;;;;;;;;;;4772087;30;20082;-76
2022/09/10 12:30:26;;;;;;;2.22;0.90;;;;;;;;;;4772376;30;20070;-76
2022/09/10 12:32:52;;;;;;;3.10;0.65;;;;;;;;;;4771722;30;20075;-76
2022/09/10 12:35:30;;;;;;;2.10;0.50;;;;;;;;;;4772226;30;20077;-76
2022/09/10 12:38:15;;;;;;;1.10;0.30;;;;;;;;;;4772028;30;20043;-76
2022/09/10 12:40:48;;;;;;;1.45;0.50;;;;;;;;;;4772040;30;20039;-76
2022/09/10 12:43:44;;;;;;;3.40;0.60;;;;;;;;;;4771833;30;20416;-76
2022/09/10 12:46:13;;;;;;;1.27;0.70;;;;;;;;;;4801219;29;20054;-76
2022/09/10 12:48:43;;;;;;;2.70;0.50;;;;;;;;;;4771749;30;20508;-76
2022/09/10 12:51:12;;;;;;;1.50;0.47;;;;;;;;;;4771880;30;20051;-76
2022/09/10 12:53:42;;;;;;;3.08;0.63;;;;;;;;;;4771909;30;20130;-76
2022/09/10 12:56:36;;;;;;;2.00;0.60;;;;;;;;;;4771909;30;20139;-76
2022/09/10 12:59:05;;;;;;;3.40;0.63;;;;;;;;;;4771857;30;20404;-76
2022/09/10 13:01:58;;;;;;;1.38;0.40;;;;;;;;;;4772631;30;20052;-76
2022/09/10 13:04:34;;;;;;;2.42;0.60;;;;;;;;;;4773523;29;20178;-76
2022/09/10 13:07:03;;;;;;;2.38;0.63;;;;;;;;;;4771980;30;20127;-76
2022/09/10 13:09:32;;;;;;;2.63;0.80;;;;;;;;;;4772044;30;20044;-76
2022/09/10 13:12:02;;;;;;;2.22;0.57;;;;;;;;;;4771407;30;20435;-76
2022/09/10 13:14:49;;;;;;;5.25;0.82;;;;;;;;;;4771761;30;20044;-76
2022/09/10 13:17:34;;;;;;;2.30;0.52;;;;;;;;;;4772439;30;20123;-76
2022/09/10 13:20:11;;;;;;;1.02;0.50;;;;;;;;;;4771544;30;20043;-76
2022/09/10 13:22:56;;;;;;;2.20;0.40;;;;;;;;;;4771320;30;20063;-76
2022/09/10 13:25:38;;;;;;;0.93;0.30;;;;;;;;;;4771357;30;20050;-76
2022/09/10 13:28:24;;;;;;;3.15;0.65;;;;;;;;;;4770677;30;20048;-76
2022/09/10 13:30:59;;;;;;;0.80;0.40;;;;;;;;;;4788031;29;20104;-77
2022/09/10 13:33:28;;;;;;;1.17;0.55;;;;;;;;;;4771771;30;20500;-76
2022/09/10 13:36:29;;;;;;;1.42;0.50;;;;;;;;;;4771453;30;20044;-76
2022/09/10 13:39:08;;;;;;;2.58;0.63;;;;;;;;;;4804802;29;20050;-76
2022/09/10 13:41:37;;;;;;;1.08;0.40;;;;;;;;;;4774892;29;20087;-76
2022/09/10 13:44:21;;;;;;;1.88;0.52;;;;;;;;;;4770852;30;20107;-76
2022/09/10 13:46:51;;;;;;;0.93;0.50;;;;;;;;;;4771653;30;20044;-77
2022/09/10 13:49:31;;;;;;;3.58;0.60;;;;;;;;;;4771463;30;20051;-76
2022/09/10 13:51:59;;;;;;;1.10;0.50;;;;;;;;;;4771271;30;20500;-76
2022/09/10 13:54:32;;;;;;;1.48;0.40;;;;;;;;;;4770983;30;20044;-76
2022/09/10 13:57:01;;;;;;;3.70;0.47;;;;;;;;;;4770956;30;20044;-76
2022/09/10 13:59:30;;;;;;;4.18;0.60;;;;;;;;;;4771280;30;20044;-76
2022/09/10 14:01:58;;;;;;;1.27;0.50;;;;;;;;;;4772051;30;20051;-76
2022/09/10 14:04:27;;;;;;;1.38;0.60;;;;;;;;;;4771150;30;20039;-76
2022/09/10 14:07:00;;;;;;;1.77;0.50;;;;;;;;;;4771222;30;20058;-76
2022/09/10 14:09:26;;;;;;;1.35;0.45;;;;;;;;;;4770852;30;20040;-76
2022/09/10 14:11:53;;;;;;;0.63;0.40;;;;;;;;;;4771697;30;20121;-76
2022/09/10 14:14:22;;;;;;;2.53;0.68;;;;;;;;;;4771110;30;20047;-76
2022/09/10 14:16:50;;;;;;;1.13;0.60;;;;;;;;;;4771662;30;20134;-76
2022/09/10 14:19:24;;;;;;;1.42;0.50;;;;;;;;;;4771192;30;20286;-76
2022/09/10 14:21:52;;;;;;;2.95;0.60;;;;;;;;;;4771096;30;20113;-76
2022/09/10 14:24:50;;;;;;;3.13;0.77;;;;;;;;;;4771009;30;20066;-76
2022/09/10 14:27:19;;;;;;;1.23;0.50;;;;;;;;;;4788845;29;20064;-76
2022/09/10 14:29:45;;;;;;;1.23;0.40;;;;;;;;;;4771276;30;20051;-76
2022/09/10 14:32:25;;;;;;;2.25;0.50;;;;;;;;;;4770398;30;20126;-75
2022/09/10 14:34:51;;;;;;;3.28;0.50;;;;;;;;;;4771146;30;20056;-76
2022/09/10 14:37:31;;;;;;;1.48;0.40;;;;;;;;;;4770520;30;20459;-76
2022/09/10 14:40:01;;;;;;;2.33;0.40;;;;;;;;;;4771698;30;20047;-75
2022/09/10 14:42:36;;;;;;;1.08;0.50;;;;;;;;;;4773584;30;20056;-75
2022/09/10 14:45:02;;;;;;;1.73;0.60;;;;;;;;;;4774026;30;20056;-76
2022/09/10 14:47:34;;;;;;;1.83;0.70;;;;;;;;;;4774049;30;20122;-76
2022/09/10 14:50:19;;;;;;;6.82;0.57;;;;;;;;;;4774318;30;20075;-75
2022/09/10 14:52:45;;;;;;;1.50;0.70;;;;;;;;;;4773834;30;20073;-76
2022/09/10 14:55:11;;;;;;;1.02;0.52;;;;;;;;;;4774217;30;20047;-76
2022/09/10 14:57:40;;;;;;;1.25;0.43;;;;;;;;;;4774357;30;20124;-75
2022/09/10 15:00:06;;;;;;;0.85;0.32;;;;;;;;;;4774065;30;20080;-76
2022/09/10 15:02:32;;;;;;;1.02;0.60;;;;;;;;;;4774686;30;20055;-75